Time;durP1;ratioP1;P1;durP2;ratioP2;P2;SDS_P1;SDS_P2;PMS_P1;PMS_P2;Temp;Humidity;BMP_temperature;BMP_pressure;BME280_temperature;BME280_humidity;BME280_pressure;Samples;Min_cycle;Max_cycle;Signal;HPM_P1;HPM_P2
2022/03/03 00:01:04;;;;;;;9.32;7.00;;;-1.20;99.90;;;;;;470415;248;27809;-75
2022/03/03 00:03:05;;;;;;;8.60;6.72;;;-1.20;99.90;;;;;;470382;252;27438;-75
2022/03/03 00:05:07;;;;;;;8.77;6.70;;;-1.20;99.90;;;;;;470370;252;27989;-75
2022/03/03 00:07:08;;;;;;;8.23;6.22;;;-1.20;99.90;;;;;;470369;252;27896;-74
2022/03/03 00:09:10;;;;;;;9.20;6.80;;;-1.20;99.90;;;;;;470368;253;29041;-75
2022/03/03 00:11:10;;;;;;;9.07;6.10;;;-1.20;99.90;;;;;;470388;252;27461;-75
2022/03/03 00:13:12;;;;;;;7.90;6.65;;;-1.20;99.90;;;;;;470413;252;27415;-74
2022/03/03 00:15:13;;;;;;;8.10;6.80;;;-1.20;99.90;;;;;;470347;253;27458;-74
2022/03/03 00:17:14;;;;;;;8.60;6.25;;;-1.10;99.90;;;;;;470410;253;27518;-74
2022/03/03 00:19:15;;;;;;;9.10;6.78;;;-1.10;99.90;;;;;;470378;248;27560;-73
2022/03/03 00:21:17;;;;;;;11.45;6.82;;;-1.10;99.90;;;;;;470416;252;27461;-75
2022/03/03 00:23:18;;;;;;;7.80;5.60;;;-1.20;99.90;;;;;;470406;252;27522;-75
2022/03/03 00:25:19;;;;;;;8.63;6.43;;;-1.30;99.90;;;;;;470428;252;28012;-75
2022/03/03 00:27:20;;;;;;;8.45;6.25;;;-1.30;99.90;;;;;;470414;252;29056;-74
2022/03/03 00:29:21;;;;;;;7.03;6.22;;;-1.30;99.90;;;;;;470423;253;27451;-75
2022/03/03 00:31:23;;;;;;;8.10;6.22;;;-1.30;99.90;;;;;;470435;253;27605;-74
2022/03/03 00:33:24;;;;;;;8.38;6.40;;;-1.30;99.90;;;;;;470395;248;27447;-74
2022/03/03 00:35:25;;;;;;;8.43;6.75;;;-1.30;99.90;;;;;;470401;253;27478;-74
2022/03/03 00:37:26;;;;;;;9.48;6.97;;;-1.30;99.90;;;;;;470396;252;27498;-74
2022/03/03 00:39:28;;;;;;;10.30;6.95;;;-1.30;99.90;;;;;;470411;249;27431;-74
2022/03/03 00:41:29;;;;;;;8.07;6.70;;;-1.30;99.90;;;;;;470397;252;27463;-75
2022/03/03 00:43:30;;;;;;;13.13;7.50;;;-1.30;99.90;;;;;;470417;252;27940;-74
2022/03/03 00:45:31;;;;;;;9.10;6.78;;;-1.50;99.90;;;;;;470405;252;28018;-75
2022/03/03 00:47:33;;;;;;;8.35;6.93;;;-1.50;99.90;;;;;;470428;253;28009;-75
2022/03/03 00:49:34;;;;;;;9.18;7.10;;;-1.50;99.90;;;;;;470383;252;27428;-74
2022/03/03 00:51:35;;;;;;;7.10;6.15;;;-1.50;99.90;;;;;;470405;252;27477;-75
2022/03/03 00:53:36;;;;;;;7.75;6.57;;;-1.40;99.90;;;;;;470399;253;27494;-74
2022/03/03 00:55:38;;;;;;;7.65;6.37;;;-1.50;99.90;;;;;;470415;252;27473;-74
2022/03/03 00:57:39;;;;;;;9.00;6.50;;;-1.40;99.90;;;;;;470421;252;27451;-74
2022/03/03 00:59:40;;;;;;;8.30;6.32;;;-1.50;99.90;;;;;;470431;253;27479;-75
2022/03/03 01:01:41;;;;;;;8.43;6.90;;;-1.60;99.90;;;;;;470455;252;27477;-75
2022/03/03 01:03:43;;;;;;;8.48;6.25;;;-1.60;99.90;;;;;;470402;253;27990;-74
2022/03/03 01:05:44;;;;;;;7.82;6.87;;;-1.60;99.90;;;;;;470433;253;28055;-74
2022/03/03 01:07:45;;;;;;;7.00;6.10;;;-1.60;99.90;;;;;;470393;252;28114;-74
2022/03/03 01:09:46;;;;;;;7.37;5.90;;;-1.60;99.90;;;;;;470397;253;27418;-74
2022/03/03 01:11:48;;;;;;;6.18;5.55;;;-1.60;99.90;;;;;;470427;252;27446;-74
2022/03/03 01:13:49;;;;;;;8.55;6.32;;;-1.60;99.90;;;;;;470409;252;27518;-75
2022/03/03 01:15:50;;;;;;;7.82;6.57;;;-1.60;99.90;;;;;;470438;249;27558;-75
2022/03/03 01:17:51;;;;;;;6.90;5.95;;;-1.50;99.90;;;;;;470407;249;27530;-74
2022/03/03 01:19:53;;;;;;;6.28;5.55;;;-1.60;99.90;;;;;;470464;253;27514;-74
2022/03/03 01:21:54;;;;;;;8.80;6.60;;;-1.60;99.90;;;;;;470447;253;27484;-75
2022/03/03 01:23:55;;;;;;;8.73;6.12;;;-1.60;99.90;;;;;;470418;252;27986;-76
2022/03/03 01:25:56;;;;;;;8.05;6.12;;;-1.60;99.90;;;;;;470390;252;29051;-75
2022/03/03 01:27:58;;;;;;;7.22;5.90;;;-1.60;99.90;;;;;;470387;253;27969;-74
2022/03/03 01:29:59;;;;;;;7.30;6.45;;;-1.70;99.90;;;;;;470421;252;27443;-75
2022/03/03 01:32:00;;;;;;;7.03;6.10;;;-1.60;99.90;;;;;;470409;252;27459;-75
2022/03/03 01:34:01;;;;;;;7.53;6.20;;;-1.60;99.90;;;;;;470356;253;27427;-75
2022/03/03 01:36:03;;;;;;;7.55;5.95;;;-1.60;99.90;;;;;;470404;252;27451;-74
2022/03/03 01:38:04;;;;;;;7.37;6.43;;;-1.70;99.90;;;;;;470421;252;27427;-74
2022/03/03 01:40:05;;;;;;;7.35;5.55;;;-1.70;99.90;;;;;;470420;253;27495;-75
2022/03/03 01:42:07;;;;;;;8.10;5.65;;;-1.70;99.90;;;;;;470429;252;27473;-75
2022/03/03 01:44:08;;;;;;;7.37;6.57;;;-1.70;99.90;;;;;;470404;252;27886;-74
2022/03/03 01:46:09;;;;;;;8.02;6.32;;;-1.70;99.90;;;;;;470392;253;29053;-75
2022/03/03 01:48:10;;;;;;;7.30;6.12;;;-1.70;99.90;;;;;;470397;252;27495;-74
2022/03/03 01:50:12;;;;;;;6.25;5.45;;;-1.80;99.90;;;;;;470419;251;27446;-74
2022/03/03 01:52:13;;;;;;;6.68;5.72;;;-1.80;99.90;;;;;;470439;252;27568;-74
2022/03/03 01:54:14;;;;;;;7.78;6.22;;;-1.80;99.90;;;;;;470403;249;27423;-75
2022/03/03 01:56:15;;;;;;;6.43;5.50;;;-1.80;99.90;;;;;;470407;252;27478;-74
2022/03/03 01:58:17;;;;;;;9.38;6.00;;;-1.80;99.90;;;;;;470390;253;27458;-74
2022/03/03 02:00:18;;;;;;;10.75;7.05;;;-1.80;99.90;;;;;;470434;252;27569;-74
2022/03/03 02:02:20;;;;;;;6.50;5.70;;;-1.90;99.90;;;;;;470422;252;28094;-75
2022/03/03 02:04:20;;;;;;;8.77;6.97;;;-1.80;99.90;;;;;;470374;253;27980;-74
2022/03/03 02:06:22;;;;;;;6.75;5.87;;;-1.90;99.90;;;;;;470391;252;28035;-75
2022/03/03 02:08:23;;;;;;;7.57;5.10;;;-1.80;99.90;;;;;;470437;253;27547;-75
2022/03/03 02:10:24;;;;;;;8.27;6.20;;;-1.80;99.90;;;;;;470421;253;27338;-74
2022/03/03 02:12:25;;;;;;;8.68;6.00;;;-1.80;99.90;;;;;;470401;252;27530;-75
2022/03/03 02:14:27;;;;;;;7.47;5.90;;;-1.90;99.90;;;;;;470423;253;27513;-74
2022/03/03 02:16:28;;;;;;;7.62;6.07;;;-1.90;99.90;;;;;;470394;252;27522;-75
2022/03/03 02:18:29;;;;;;;6.82;6.10;;;-1.90;99.90;;;;;;470412;252;27804;-74
2022/03/03 02:20:30;;;;;;;8.27;5.32;;;-1.90;99.90;;;;;;470399;253;27557;-75
2022/03/03 02:22:32;;;;;;;6.45;5.82;;;-1.90;99.90;;;;;;470396;252;27922;-74
2022/03/03 02:24:33;;;;;;;7.62;6.50;;;-2.00;99.90;;;;;;470411;252;27889;-74
2022/03/03 02:26:34;;;;;;;6.47;5.57;;;-2.00;99.90;;;;;;470393;252;27900;-74
2022/03/03 02:28:35;;;;;;;7.35;6.12;;;-2.00;99.90;;;;;;470422;252;27566;-74
2022/03/03 02:30:37;;;;;;;7.40;5.47;;;-2.00;99.90;;;;;;470404;253;27442;-75
2022/03/03 02:32:38;;;;;;;7.57;5.93;;;-2.00;99.90;;;;;;470408;252;27486;-74
2022/03/03 02:34:39;;;;;;;6.80;6.10;;;-2.00;99.90;;;;;;470438;252;27436;-74
2022/03/03 02:36:40;;;;;;;7.35;5.50;;;-2.00;99.90;;;;;;470404;253;27459;-74
2022/03/03 02:38:42;;;;;;;7.22;6.32;;;-2.10;99.90;;;;;;470428;252;27516;-75
2022/03/03 02:40:43;;;;;;;6.95;6.25;;;-2.10;99.90;;;;;;470415;253;27433;-75
2022/03/03 02:42:44;;;;;;;9.20;6.57;;;-2.20;99.90;;;;;;470419;252;27969;-74
2022/03/03 02:44:45;;;;;;;7.82;6.37;;;-2.30;99.90;;;;;;470439;252;28657;-74
2022/03/03 02:46:47;;;;;;;5.75;5.15;;;-2.30;99.90;;;;;;470430;253;27939;-74
2022/03/03 02:48:48;;;;;;;8.38;6.10;;;-2.30;99.90;;;;;;470446;252;27498;-74
2022/03/03 02:50:49;;;;;;;8.05;5.80;;;-2.30;99.90;;;;;;470435;252;27430;-74
2022/03/03 02:52:50;;;;;;;8.55;6.40;;;-2.30;99.90;;;;;;470443;253;27533;-74
2022/03/03 02:54:52;;;;;;;7.70;6.40;;;-2.30;99.90;;;;;;470462;253;27880;-74
2022/03/03 02:59:12;;;;;;;7.00;6.30;;;-2.20;99.90;;;;;;470413;253;27953;-74
2022/03/03 03:01:14;;;;;;;6.40;5.80;;;-2.30;99.90;;;;;;470432;252;27995;-74
2022/03/03 03:03:15;;;;;;;6.87;5.82;;;-2.30;99.90;;;;;;470422;253;27526;-74
2022/03/03 03:05:16;;;;;;;7.37;5.65;;;-2.20;99.90;;;;;;470456;252;27466;-75
2022/03/03 03:07:17;;;;;;;8.88;6.78;;;-2.20;99.90;;;;;;470420;253;27487;-75
2022/03/03 03:09:19;;;;;;;7.03;5.85;;;-2.20;99.90;;;;;;470417;252;27564;-75
2022/03/03 03:11:20;;;;;;;7.70;6.22;;;-2.20;99.90;;;;;;470428;252;27481;-74
2022/03/03 03:13:21;;;;;;;8.18;6.47;;;-2.20;99.90;;;;;;470389;253;27557;-74
2022/03/03 03:15:22;;;;;;;8.55;6.45;;;-2.10;99.90;;;;;;470410;252;27471;-74
2022/03/03 03:17:24;;;;;;;8.27;7.05;;;-2.10;99.90;;;;;;470390;253;27889;-75
2022/03/03 03:19:25;;;;;;;8.25;6.85;;;-2.20;99.90;;;;;;470387;253;29136;-74
2022/03/03 03:21:26;;;;;;;6.93;6.22;;;-2.30;99.90;;;;;;470394;252;27426;-74
2022/03/03 03:23:27;;;;;;;9.68;6.80;;;-2.30;99.90;;;;;;470400;252;27443;-74
2022/03/03 03:25:29;;;;;;;9.00;7.37;;;-2.40;99.90;;;;;;470419;252;27457;-74
2022/03/03 03:27:30;;;;;;;7.87;7.03;;;-2.40;99.90;;;;;;470417;252;27549;-74
2022/03/03 03:29:31;;;;;;;10.68;7.32;;;-2.30;99.90;;;;;;470394;253;27473;-73
2022/03/03 03:31:32;;;;;;;8.07;6.80;;;-2.30;99.90;;;;;;470394;249;27442;-74
2022/03/03 03:33:34;;;;;;;8.95;7.40;;;-2.30;99.90;;;;;;470396;253;27311;-74
2022/03/03 03:35:35;;;;;;;8.85;7.00;;;-2.30;99.90;;;;;;470419;252;27464;-74
2022/03/03 03:37:36;;;;;;;8.35;6.70;;;-2.30;99.90;;;;;;470403;252;27430;-74
2022/03/03 03:39:37;;;;;;;8.90;6.85;;;-2.30;99.90;;;;;;470393;252;27470;-74
2022/03/03 03:41:39;;;;;;;6.72;6.03;;;-2.30;99.90;;;;;;470396;252;27433;-74
2022/03/03 03:43:40;;;;;;;6.32;5.72;;;-2.30;99.90;;;;;;470402;252;27960;-74
2022/03/03 03:45:41;;;;;;;10.00;7.70;;;-2.30;99.90;;;;;;470392;251;28082;-75
2022/03/03 03:47:42;;;;;;;7.72;6.78;;;-2.30;99.90;;;;;;470402;252;27889;-74
2022/03/03 03:49:44;;;;;;;8.32;6.90;;;-2.30;99.90;;;;;;470347;253;27458;-75
2022/03/03 03:51:45;;;;;;;7.03;5.95;;;-2.20;99.90;;;;;;470438;252;27350;-74
2022/03/03 03:53:46;;;;;;;6.95;6.18;;;-2.20;99.90;;;;;;470428;252;27491;-74
2022/03/03 03:55:47;;;;;;;8.52;7.05;;;-2.30;99.90;;;;;;470416;253;27557;-74
2022/03/03 03:57:49;;;;;;;6.68;5.95;;;-2.20;99.90;;;;;;470408;252;27550;-74
2022/03/03 03:59:50;;;;;;;7.22;6.10;;;-2.30;99.90;;;;;;470400;252;27410;-74
2022/03/03 04:01:51;;;;;;;7.75;6.97;;;-2.30;99.90;;;;;;470400;252;27387;-75
2022/03/03 04:03:53;;;;;;;10.60;7.70;;;-2.30;99.90;;;;;;470415;252;27896;-74
2022/03/03 04:05:54;;;;;;;7.55;6.50;;;-2.30;99.90;;;;;;470379;249;27945;-74
2022/03/03 04:07:55;;;;;;;7.47;6.47;;;-2.30;99.90;;;;;;470429;252;27495;-74
2022/03/03 04:09:56;;;;;;;8.35;6.70;;;-2.30;99.90;;;;;;470403;252;27543;-74
2022/03/03 04:11:58;;;;;;;6.95;6.25;;;-2.30;99.90;;;;;;470433;253;27246;-74
2022/03/03 04:13:59;;;;;;;7.32;6.07;;;-2.20;99.90;;;;;;470416;252;27501;-74
2022/03/03 04:16:00;;;;;;;7.15;5.80;;;-2.20;99.90;;;;;;470423;252;27478;-74
2022/03/03 04:18:01;;;;;;;6.65;5.95;;;-2.20;99.90;;;;;;470398;253;27497;-74
2022/03/03 04:20:03;;;;;;;7.32;6.28;;;-2.20;99.90;;;;;;470418;252;27477;-75
2022/03/03 04:22:04;;;;;;;10.25;6.00;;;-2.20;99.90;;;;;;470436;253;27945;-74
2022/03/03 04:24:06;;;;;;;6.85;5.65;;;-2.20;99.90;;;;;;470415;252;27830;-73
2022/03/03 04:26:06;;;;;;;7.20;6.50;;;-2.20;99.90;;;;;;470411;252;27553;-75
2022/03/03 04:28:08;;;;;;;8.23;6.35;;;-2.20;99.90;;;;;;470416;253;27442;-74
2022/03/03 04:30:12;;;;;;;6.62;6.03;;;-2.20;99.90;;;;;;470428;252;27455;-74
2022/03/03 04:32:13;;;;;;;8.38;6.45;;;-2.20;99.90;;;;;;470455;252;27430;-73
2022/03/03 04:34:14;;;;;;;9.40;7.47;;;-2.40;99.90;;;;;;470438;252;27545;-75
2022/03/03 04:36:16;;;;;;;12.07;6.53;;;-2.50;99.90;;;;;;470444;252;27412;-74
2022/03/03 04:38:17;;;;;;;7.60;6.65;;;-2.50;99.90;;;;;;470425;252;27473;-74
2022/03/03 04:40:18;;;;;;;7.57;6.12;;;-2.50;99.90;;;;;;470450;253;27822;-75
2022/03/03 04:42:19;;;;;;;8.43;6.65;;;-2.50;99.90;;;;;;470418;252;27303;-74
2022/03/03 04:44:21;;;;;;;9.30;6.05;;;-2.50;99.90;;;;;;470398;252;27486;-74
2022/03/03 04:46:22;;;;;;;8.55;6.37;;;-2.50;99.90;;;;;;470392;252;27888;-75
2022/03/03 04:48:29;;;;;;;8.38;6.70;;;-2.50;99.90;;;;;;470424;252;28033;-74
2022/03/03 04:50:24;;;;;;;7.72;6.30;;;-2.50;99.90;;;;;;470035;253;29108;-75
2022/03/03 04:52:26;;;;;;;8.00;7.12;;;-2.60;99.90;;;;;;470429;252;27514;-74
2022/03/03 04:54:27;;;;;;;7.90;6.50;;;-2.60;99.90;;;;;;470449;252;27396;-74
2022/03/03 04:56:28;;;;;;;7.85;6.90;;;-2.60;99.90;;;;;;470427;253;27294;-74
2022/03/03 04:58:30;;;;;;;7.50;6.32;;;-2.60;99.90;;;;;;470402;252;28712;-75
2022/03/03 05:00:32;;;;;;;6.40;5.80;;;;;;;;;;470438;253;27371;-74
2022/03/03 05:02:33;;;;;;;9.13;6.53;;;-2.60;99.90;;;;;;470414;253;26649;-74
2022/03/03 05:04:34;;;;;;;8.20;7.00;;;-2.60;99.90;;;;;;470415;252;27426;-74
2022/03/03 05:06:36;;;;;;;10.25;7.20;;;-2.70;99.90;;;;;;470413;248;27304;-75
2022/03/03 05:08:37;;;;;;;9.90;7.55;;;-2.60;99.90;;;;;;470417;252;27302;-74
2022/03/03 05:10:38;;;;;;;8.65;7.75;;;-2.60;99.90;;;;;;470405;252;27813;-74
2022/03/03 05:12:39;;;;;;;10.20;7.45;;;-2.60;99.90;;;;;;470389;252;27451;-75
2022/03/03 05:14:41;;;;;;;9.40;7.15;;;-2.50;99.90;;;;;;470402;252;27466;-74
2022/03/03 05:16:42;;;;;;;8.43;6.50;;;-2.60;99.90;;;;;;470396;252;27964;-74
2022/03/03 05:18:43;;;;;;;10.27;7.37;;;-2.60;99.90;;;;;;470375;252;28860;-74
2022/03/03 05:20:44;;;;;;;10.93;7.28;;;-2.60;99.90;;;;;;470438;252;27388;-74
2022/03/03 05:22:46;;;;;;;9.02;7.22;;;-2.60;99.90;;;;;;470402;249;27320;-75
2022/03/03 05:24:50;;;;;;;8.18;6.75;;;-2.50;99.90;;;;;;470428;252;27369;-76
2022/03/03 05:26:48;;;;;;;6.90;6.20;;;-2.50;99.90;;;;;;470257;253;27346;-74
2022/03/03 05:28:50;;;;;;;9.43;6.60;;;-2.60;99.90;;;;;;470451;252;27099;-74
2022/03/03 05:30:51;;;;;;;9.32;6.95;;;-2.60;99.90;;;;;;470422;252;27320;-74
2022/03/03 05:32:52;;;;;;;7.85;7.05;;;-2.70;99.90;;;;;;470452;252;27355;-75
2022/03/03 05:34:53;;;;;;;11.57;7.97;;;-2.70;99.90;;;;;;470455;249;27701;-74
2022/03/03 05:36:55;;;;;;;9.88;7.40;;;-2.70;99.90;;;;;;470442;252;27959;-74
2022/03/03 05:38:56;;;;;;;11.25;7.62;;;-2.70;99.90;;;;;;470411;253;27741;-74
2022/03/03 05:40:57;;;;;;;8.70;7.45;;;-2.70;99.90;;;;;;470419;253;27447;-74
2022/03/03 05:42:58;;;;;;;7.90;6.75;;;-2.70;99.90;;;;;;470435;252;27332;-74
2022/03/03 05:45:00;;;;;;;7.50;6.20;;;-2.60;99.90;;;;;;470437;253;27214;-74
2022/03/03 05:47:01;;;;;;;7.60;6.82;;;-2.60;99.90;;;;;;470443;252;27270;-74
2022/03/03 05:49:02;;;;;;;9.38;8.38;;;-2.60;99.90;;;;;;470394;249;27319;-73
2022/03/03 05:51:03;;;;;;;9.05;7.35;;;-2.60;99.90;;;;;;470440;248;27534;-74
2022/03/03 05:53:05;;;;;;;8.50;6.97;;;-2.60;99.90;;;;;;470297;252;27363;-74
2022/03/03 05:55:06;;;;;;;8.55;7.70;;;-2.70;99.90;;;;;;470433;253;27850;-74
2022/03/03 05:57:07;;;;;;;10.23;9.02;;;-2.70;99.90;;;;;;470335;252;28966;-75
2022/03/03 05:59:08;;;;;;;8.48;7.50;;;-2.70;99.90;;;;;;470385;253;27216;-74
2022/03/03 06:01:10;;;;;;;8.80;7.90;;;-2.80;99.90;;;;;;470411;253;27454;-74
2022/03/03 06:03:11;;;;;;;10.15;8.38;;;-2.90;99.90;;;;;;470413;252;27219;-75
2022/03/03 06:05:13;;;;;;;10.95;8.50;;;-2.90;99.90;;;;;;470420;252;27098;-74
2022/03/03 06:07:13;;;;;;;9.60;7.20;;;-2.80;99.90;;;;;;470359;249;27595;-74
2022/03/03 06:09:15;;;;;;;12.20;8.07;;;-2.80;99.90;;;;;;470404;253;27180;-74
2022/03/03 06:11:16;;;;;;;8.80;7.25;;;-2.80;99.90;;;;;;470397;252;27912;-74
2022/03/03 06:13:17;;;;;;;8.85;7.95;;;-2.80;99.90;;;;;;470405;252;27729;-75
2022/03/03 06:15:18;;;;;;;9.20;8.30;;;-2.70;99.90;;;;;;470385;252;27812;-74
2022/03/03 06:17:20;;;;;;;8.50;6.93;;;-2.60;99.90;;;;;;470320;249;27259;-73
2022/03/03 06:19:21;;;;;;;7.90;6.75;;;-2.60;99.90;;;;;;470335;253;27237;-74
2022/03/03 06:21:23;;;;;;;8.35;7.45;;;-2.60;99.90;;;;;;470380;249;27304;-74
2022/03/03 06:23:25;;;;;;;12.00;8.50;;;;;;;;;;470287;253;27446;-74
2022/03/03 06:25:26;;;;;;;11.35;8.45;;;-2.60;99.90;;;;;;470352;253;27084;-75
2022/03/03 06:27:27;;;;;;;10.68;8.40;;;-2.70;99.90;;;;;;470414;253;27238;-74
2022/03/03 06:29:28;;;;;;;10.35;8.20;;;-2.70;99.90;;;;;;470416;252;27104;-74
2022/03/03 06:31:30;;;;;;;8.77;7.57;;;-2.70;99.90;;;;;;470352;252;27354;-74
2022/03/03 06:33:31;;;;;;;10.00;7.55;;;-2.60;99.90;;;;;;470379;252;27011;-74
2022/03/03 06:35:37;;;;;;;10.10;8.20;;;-2.60;99.90;;;;;;470345;253;27334;-75
2022/03/03 06:37:34;;;;;;;9.38;7.22;;;-2.70;99.90;;;;;;469917;253;27344;-75
2022/03/03 06:39:35;;;;;;;8.15;6.80;;;-2.70;99.90;;;;;;470423;251;27772;-74
2022/03/03 06:41:36;;;;;;;11.35;8.10;;;-2.70;99.90;;;;;;470406;252;29053;-74
2022/03/03 06:43:37;;;;;;;10.80;7.45;;;-2.70;99.90;;;;;;470407;252;27182;-73
2022/03/03 06:45:38;;;;;;;8.93;7.25;;;-2.70;99.90;;;;;;470363;252;27542;-74
2022/03/03 06:47:40;;;;;;;8.32;7.53;;;-2.70;99.90;;;;;;470412;252;27279;-74
2022/03/03 06:49:41;;;;;;;9.40;7.22;;;-2.70;99.90;;;;;;470430;251;27345;-74
2022/03/03 06:51:42;;;;;;;8.38;7.05;;;-2.70;99.90;;;;;;470415;252;27231;-75
2022/03/03 06:53:43;;;;;;;11.88;7.47;;;-2.70;99.90;;;;;;470444;252;27316;-74
2022/03/03 06:55:45;;;;;;;9.27;7.30;;;-2.60;99.90;;;;;;470397;252;27306;-74
2022/03/03 06:57:46;;;;;;;8.55;7.60;;;-2.60;99.90;;;;;;470434;252;27867;-75
2022/03/03 06:59:47;;;;;;;9.43;8.18;;;-2.50;99.90;;;;;;470405;253;27874;-74
2022/03/03 07:01:49;;;;;;;10.45;9.02;;;-2.50;99.90;;;;;;470434;252;27834;-75
2022/03/03 07:03:50;;;;;;;10.00;8.30;;;-2.40;99.90;;;;;;470418;252;27185;-74
2022/03/03 07:05:54;;;;;;;11.45;8.20;;;-2.40;99.90;;;;;;470399;248;27426;-74
2022/03/03 07:07:52;;;;;;;11.07;8.80;;;-2.40;99.90;;;;;;469993;248;27482;-74
2022/03/03 07:09:53;;;;;;;6.50;5.85;;;-2.30;99.90;;;;;;470381;252;27431;-74
2022/03/03 07:11:55;;;;;;;9.57;6.82;;;-2.30;99.90;;;;;;470397;252;27370;-74
2022/03/03 07:13:56;;;;;;;8.57;7.30;;;-2.20;99.90;;;;;;470417;248;27871;-74
2022/03/03 07:15:57;;;;;;;7.37;6.55;;;-2.20;99.90;;;;;;470404;252;29132;-74
2022/03/03 07:17:58;;;;;;;8.00;6.62;;;-2.30;99.90;;;;;;470436;252;27542;-75
2022/03/03 07:20:00;;;;;;;8.63;6.55;;;-2.30;99.90;;;;;;470417;253;27506;-74
2022/03/03 07:22:01;;;;;;;9.27;7.15;;;-2.30;99.90;;;;;;470424;252;27375;-74
2022/03/03 07:24:02;;;;;;;14.15;9.93;;;-2.20;99.90;;;;;;470404;253;27215;-74
2022/03/03 07:26:03;;;;;;;16.67;11.10;;;-2.10;99.90;;;;;;470384;252;27416;-74
2022/03/03 07:28:05;;;;;;;19.45;12.13;;;-1.90;99.90;;;;;;470385;253;27351;-74
2022/03/03 07:30:06;;;;;;;20.27;14.02;;;-1.80;99.90;;;;;;470404;253;28014;-74
2022/03/03 07:32:07;;;;;;;20.50;13.60;;;-1.70;99.90;;;;;;470430;253;28108;-75
2022/03/03 07:34:09;;;;;;;20.12;13.10;;;-1.30;99.90;;;;;;470434;253;27502;-74
2022/03/03 07:36:12;;;;;;;18.40;12.73;;;-1.00;99.90;;;;;;470405;253;27481;-75
2022/03/03 07:38:14;;;;;;;19.08;12.15;;;-0.90;99.90;;;;;;470406;253;27474;-74
2022/03/03 07:40:15;;;;;;;15.40;10.85;;;-1.00;99.90;;;;;;470392;253;27553;-74
2022/03/03 07:42:17;;;;;;;17.75;11.40;;;-1.10;99.90;;;;;;470397;253;27499;-74
2022/03/03 07:44:18;;;;;;;19.12;12.13;;;-1.10;99.90;;;;;;470361;253;27600;-74
2022/03/03 07:46:19;;;;;;;17.30;11.60;;;-1.10;99.90;;;;;;470393;253;27473;-74
2022/03/03 07:48:20;;;;;;;18.08;10.32;;;-1.10;99.90;;;;;;470397;253;28021;-75
2022/03/03 07:50:21;;;;;;;15.80;10.40;;;-1.10;99.90;;;;;;470399;253;28035;-74
2022/03/03 07:52:23;;;;;;;15.65;10.75;;;-1.10;99.90;;;;;;470424;253;27459;-75
2022/03/03 07:54:24;;;;;;;12.90;9.40;;;-1.10;99.90;;;;;;470384;253;27462;-74
2022/03/03 07:56:26;;;;;;;13.62;10.32;;;-1.10;99.90;;;;;;470393;253;27529;-74
2022/03/03 07:58:26;;;;;;;12.18;9.43;;;-1.00;99.90;;;;;;470296;253;27526;-75
2022/03/03 08:00:28;;;;;;;13.62;9.75;;;-1.00;99.90;;;;;;470427;252;27471;-75
2022/03/03 08:02:29;;;;;;;11.23;8.55;;;-0.90;99.90;;;;;;470419;252;28004;-75
2022/03/03 08:04:30;;;;;;;11.43;8.93;;;-0.90;99.90;;;;;;470384;253;28035;-74
2022/03/03 08:06:32;;;;;;;12.70;8.75;;;-0.80;99.90;;;;;;470411;252;27469;-74
2022/03/03 08:08:33;;;;;;;11.27;9.10;;;-0.70;99.90;;;;;;470365;252;27538;-74
2022/03/03 08:10:34;;;;;;;8.85;7.45;;;-0.70;99.90;;;;;;470433;252;27479;-74
2022/03/03 08:12:35;;;;;;;10.93;7.90;;;-0.60;99.90;;;;;;470368;253;27427;-75
2022/03/03 08:14:36;;;;;;;9.75;7.50;;;-0.50;99.90;;;;;;469807;252;27467;-75
2022/03/03 08:16:40;;;;;;;13.40;9.07;;;-0.50;99.90;;;;;;469865;252;27454;-74
2022/03/03 08:18:39;;;;;;;18.15;8.82;;;-0.40;99.90;;;;;;470015;253;27907;-74
2022/03/03 08:20:40;;;;;;;22.33;10.40;;;-0.30;99.90;;;;;;470344;252;27935;-74
2022/03/03 08:22:41;;;;;;;19.73;10.02;;;-0.30;99.90;;;;;;470382;253;27459;-74
2022/03/03 08:24:43;;;;;;;13.85;8.35;;;-0.20;99.90;;;;;;470372;253;27542;-74
2022/03/03 08:26:44;;;;;;;14.85;9.45;;;-0.10;99.90;;;;;;470404;252;27485;-74
2022/03/03 08:28:45;;;;;;;15.38;8.38;;;0.00;99.90;;;;;;470420;253;27422;-75
2022/03/03 08:30:47;;;;;;;15.25;8.80;;;0.00;99.90;;;;;;470403;252;27486;-75
2022/03/03 08:32:48;;;;;;;10.70;7.75;;;0.10;99.90;;;;;;470416;253;27970;-75
2022/03/03 08:34:49;;;;;;;12.82;8.10;;;0.20;99.90;;;;;;470407;253;27964;-75
2022/03/03 08:36:50;;;;;;;12.37;7.53;;;0.30;99.90;;;;;;470426;252;29032;-74
2022/03/03 08:38:51;;;;;;;8.90;6.30;;;0.30;99.90;;;;;;470397;252;27470;-75
2022/03/03 08:40:53;;;;;;;13.82;7.57;;;0.40;99.90;;;;;;470415;253;27547;-75
2022/03/03 08:42:56;;;;;;;9.15;6.80;;;0.50;99.90;;;;;;470412;252;27423;-75
2022/03/03 08:44:55;;;;;;;8.93;7.25;;;0.60;99.90;;;;;;470329;253;27493;-75
2022/03/03 08:46:56;;;;;;;17.20;10.05;;;0.70;99.90;;;;;;470427;252;27406;-73
2022/03/03 08:48:58;;;;;;;15.05;10.77;;;1.40;99.90;;;;;;470435;253;27434;-75
2022/03/03 08:50:59;;;;;;;15.93;10.48;;;1.70;99.90;;;;;;470475;253;27587;-75
2022/03/03 08:53:00;;;;;;;17.25;12.70;;;1.90;99.90;;;;;;470439;253;27983;-74
2022/03/03 08:55:01;;;;;;;18.25;12.35;;;2.30;99.90;;;;;;470439;253;27983;-75
2022/03/03 08:57:03;;;;;;;20.48;14.32;;;2.40;99.90;;;;;;470433;253;27565;-75
2022/03/03 08:59:04;;;;;;;21.23;12.82;;;2.70;99.90;;;;;;470413;253;27429;-75
2022/03/03 09:01:05;;;;;;;24.85;14.95;;;2.70;99.90;;;;;;470435;253;27570;-76
2022/03/03 09:03:07;;;;;;;24.08;14.87;;;2.90;99.90;;;;;;470415;253;27410;-75
2022/03/03 09:05:08;;;;;;;20.37;14.50;;;3.00;99.90;;;;;;470396;253;27478;-75
2022/03/03 09:07:09;;;;;;;27.75;16.10;;;3.00;99.90;;;;;;470373;253;27423;-74
2022/03/03 09:09:11;;;;;;;26.17;15.77;;;3.20;99.90;;;;;;470408;248;28047;-75
2022/03/03 09:11:12;;;;;;;21.55;14.35;;;3.20;99.90;;;;;;470414;253;28039;-75
2022/03/03 09:13:13;;;;;;;23.27;14.55;;;3.20;99.90;;;;;;470385;253;27415;-76
2022/03/03 09:15:15;;;;;;;24.95;16.58;;;3.30;99.90;;;;;;470387;253;27535;-75
2022/03/03 09:17:15;;;;;;;21.50;15.00;;;3.40;99.90;;;;;;470395;249;27518;-75
2022/03/03 09:19:17;;;;;;;22.55;15.65;;;3.50;99.90;;;;;;470432;253;27432;-74
2022/03/03 09:21:18;;;;;;;21.27;15.07;;;3.60;99.90;;;;;;470370;253;27466;-75
2022/03/03 09:23:19;;;;;;;22.77;15.10;;;3.70;99.90;;;;;;470370;253;27434;-74
2022/03/03 09:25:20;;;;;;;24.12;15.27;;;3.70;99.90;;;;;;470382;253;28057;-76
2022/03/03 09:27:22;;;;;;;21.05;15.13;;;3.80;99.90;;;;;;470428;253;28032;-76
2022/03/03 09:29:23;;;;;;;21.40;13.57;;;3.80;99.90;;;;;;470390;253;27445;-75
2022/03/03 09:31:24;;;;;;;21.45;14.50;;;3.90;99.90;;;;;;470414;248;27493;-75
2022/03/03 09:33:25;;;;;;;23.35;15.10;;;3.90;99.90;;;;;;470377;253;27426;-75
2022/03/03 09:35:27;;;;;;;23.70;15.00;;;4.10;99.90;;;;;;470394;253;27546;-75
2022/03/03 09:37:28;;;;;;;19.00;13.35;;;4.00;99.90;;;;;;470430;253;27466;-75
2022/03/03 09:39:29;;;;;;;21.17;12.50;;;4.00;99.90;;;;;;470424;253;27456;-75
2022/03/03 09:41:30;;;;;;;18.65;13.43;;;4.00;99.90;;;;;;470417;253;27944;-74
2022/03/03 09:43:32;;;;;;;20.80;13.77;;;4.10;99.90;;;;;;470424;253;27549;-75
2022/03/03 09:45:33;;;;;;;18.08;12.73;;;4.00;99.90;;;;;;470416;253;27450;-75
2022/03/03 09:47:34;;;;;;;22.98;14.63;;;4.30;99.90;;;;;;470410;249;27454;-75
2022/03/03 09:49:35;;;;;;;23.85;13.55;;;4.50;99.90;;;;;;470435;253;27516;-75
2022/03/03 09:51:37;;;;;;;17.85;13.25;;;4.50;99.90;;;;;;470396;253;27474;-74
2022/03/03 09:53:38;;;;;;;20.00;13.98;;;4.50;99.90;;;;;;470407;248;27459;-74
2022/03/03 09:55:39;;;;;;;21.42;13.85;;;4.80;99.90;;;;;;470397;249;28008;-75
2022/03/03 09:57:40;;;;;;;20.48;15.18;;;4.90;99.90;;;;;;470414;253;28079;-75
2022/03/03 09:59:42;;;;;;;21.30;13.95;;;4.90;99.90;;;;;;470403;253;27569;-75
2022/03/03 10:01:43;;;;;;;18.20;12.20;;;4.90;99.90;;;;;;470418;253;27439;-75
2022/03/03 10:03:47;;;;;;;19.33;12.75;;;4.80;99.90;;;;;;470444;253;28040;-75
2022/03/03 10:05:48;;;;;;;21.95;13.75;;;4.80;99.90;;;;;;470269;253;27414;-75
2022/03/03 10:07:49;;;;;;;25.15;15.00;;;5.00;99.90;;;;;;470433;253;27415;-75
2022/03/03 10:10:00;;;;;;;18.87;13.07;;;5.30;99.90;;;;;;470447;253;27458;-75
2022/03/03 10:12:01;;;;;;;18.85;13.23;;;5.20;99.90;;;;;;470405;253;27445;-76
2022/03/03 10:14:02;;;;;;;19.17;12.90;;;5.00;99.90;;;;;;470388;253;27551;-75
2022/03/03 10:16:03;;;;;;;17.92;12.88;;;5.20;99.90;;;;;;470392;253;27471;-74
2022/03/03 10:18:05;;;;;;;22.55;14.60;;;5.20;99.90;;;;;;470427;253;28058;-75
2022/03/03 10:20:07;;;;;;;18.90;12.35;;;5.50;99.90;;;;;;470398;253;27422;-76
2022/03/03 10:22:07;;;;;;;17.30;13.15;;;5.40;99.90;;;;;;470349;253;27461;-75
2022/03/03 10:24:08;;;;;;;21.12;14.07;;;5.40;99.90;;;;;;470402;249;27531;-75
2022/03/03 10:26:10;;;;;;;18.17;13.23;;;5.60;99.90;;;;;;470423;253;27582;-75
2022/03/03 10:28:11;;;;;;;19.02;13.82;;;5.70;99.90;;;;;;470415;253;27449;-75
2022/03/03 10:30:12;;;;;;;21.08;14.50;;;5.90;99.90;;;;;;470417;253;28048;-74